Hickory Regional Airport
KHKY : now visible

Airfield :











YOU CAN JOIN US ON...

 
LOGIN :

Register | Disclaimer

   EN    FR    IT 

 









Legend :    VFR   Marginal VFR   IFR   Intensive IFR   Very Intensive IFR
Visi :
Ceiling :
>= 8 km
>= 3000ft
5 to 8 km
1000 to 3000 ft
1500m to 5 km
500 to 1000 ft
800 to 1500m
200 to 500 ft
< 800m
< 200 ft
Symbols :   Thunderstorms  Fog  Heavy snow  Heavy precipitations  Wind > 20 kt






- Airport Elevation : 1190 ft
- IATA code : HKY


KHKY - Hickory Regional

CURRENT METAR :
  • 130353Z AUTO 00000KT 10SM FEW043 22/20 A3006 RMK AO2 SLP155 T02170200

EXPIRED METARs :
  • 130253Z AUTO 00000KT 10SM CLR 22/21 A3006 RMK AO2 SLP157 T02170206 50010
  • 130153Z AUTO 30003KT 10SM CLR 22/21 A3007 RMK AO2 SLP161 T02220206

TAF KHKY
Valid from the 13 at 00:00 until the 14 at 00:00 UTC


122344Z 1300/1324 01004KT P6SM VCSH SCT080
FM130800 VRB02KT 5SM BR SCT005 SCT012
TEMPO 1309/1312 1/2SM FG BKN004
FM131300 VRB02KT P6SM VCSH BKN025
FM131500 07005KT P6SM VCTS BKN040CB
PROB30 1318/1324 4SM TSRA BR OVC025CB
KZTL FIR / North America



MET'MAP, your aeronautical weather chart ! - Copyright ORBIFLY December 2007 - Disclaimer

ORBIFLY MET'MAP TEAM :

Programming & Development : Alexandra Zaïnal
Concept & original design : Baudouin d'Aumeries
Assistance for programming : Marc-Olivier Méhu
Technical & hardware support : Manuel Goepfert

Contact : metmap@orbifly.com




SOURCES & CREDITS :

   NOAA       Earth
Advisory